createdAt,value
2018-11-04T00:04:02.676Z,101687.00
2018-11-04T00:08:56.024Z,101684.00
2018-11-04T00:13:49.645Z,101667.00
2018-11-04T00:18:44.181Z,101670.00
2018-11-04T00:23:37.810Z,101675.00
2018-11-04T00:28:31.123Z,101671.00
2018-11-04T00:33:24.499Z,101669.00
2018-11-04T00:38:17.927Z,101661.00
2018-11-04T00:43:11.221Z,101652.00
2018-11-04T00:48:04.808Z,101641.00
2018-11-04T00:52:58.182Z,101644.00
2018-11-04T00:57:52.369Z,101638.00
2018-11-04T01:02:46.926Z,101638.00
2018-11-04T01:07:40.344Z,101630.00
2018-11-04T01:12:35.140Z,101622.00
2018-11-04T01:17:28.611Z,101616.00
2018-11-04T01:22:21.986Z,101595.00
2018-11-04T01:27:15.897Z,101593.00
2018-11-04T01:32:09.255Z,101590.00
2018-11-04T01:37:02.698Z,101575.00
2018-11-04T01:41:56.136Z,101573.00
2018-11-04T01:46:49.466Z,101563.00
2018-11-04T01:51:43.374Z,101558.00
2018-11-04T01:56:36.804Z,101550.00
2018-11-04T02:01:30.179Z,101545.00
2018-11-04T02:06:24.288Z,101541.00
2018-11-04T02:11:18.251Z,101527.00
2018-11-04T02:16:11.625Z,101529.00
2018-11-04T02:21:05.873Z,101522.00
2018-11-04T02:25:59.281Z,101516.00
2018-11-04T02:30:52.606Z,101514.00
2018-11-04T02:35:47.963Z,101500.00
2018-11-04T02:40:41.238Z,101499.00
2018-11-04T02:45:34.629Z,101490.00
2018-11-04T02:50:27.954Z,101481.00
2018-11-04T02:55:21.387Z,101479.00
2018-11-04T03:00:15.023Z,101469.00
2018-11-04T03:05:09.232Z,101459.00
2018-11-04T03:10:02.611Z,101450.00
2018-11-04T03:14:55.920Z,101452.00
2018-11-04T03:19:49.347Z,101443.00
2018-11-04T03:24:43.321Z,101444.00
2018-11-04T03:29:36.628Z,101439.00
2018-11-04T03:34:31.525Z,101438.00
2018-11-04T03:39:24.862Z,101434.00
2018-11-04T03:44:18.385Z,101426.00
2018-11-04T03:49:11.769Z,101437.00
2018-11-04T03:54:05.476Z,101437.00
2018-11-04T03:58:59.141Z,101434.00
2018-11-04T04:03:52.598Z,101427.00
2018-11-04T04:08:45.977Z,101424.00
2018-11-04T04:13:39.281Z,101419.00
2018-11-04T04:18:32.653Z,101419.00
2018-11-04T04:23:25.913Z,101408.00
2018-11-04T04:28:19.176Z,101408.00
2018-11-04T04:33:12.459Z,101399.00
2018-11-04T04:38:06.169Z,101394.00
2018-11-04T04:42:59.512Z,101389.00
2018-11-04T04:47:52.922Z,101383.00
2018-11-04T04:52:46.242Z,101379.00
2018-11-04T04:57:39.483Z,101376.00
2018-11-04T05:02:32.773Z,101371.00
2018-11-04T05:07:26.156Z,101371.00
2018-11-04T05:12:19.495Z,101366.00
2018-11-04T05:17:12.831Z,101368.00
2018-11-04T05:22:06.969Z,101370.00
2018-11-04T05:27:00.266Z,101372.00
2018-11-04T05:31:53.579Z,101363.00
2018-11-04T05:36:46.846Z,101362.00
2018-11-04T05:41:40.240Z,101356.00
2018-11-04T05:46:33.731Z,101354.00
2018-11-04T05:51:26.993Z,101348.00
2018-11-04T05:56:20.820Z,101353.00
2018-11-04T06:01:14.297Z,101353.00
2018-11-04T06:06:07.581Z,101349.00
2018-11-04T06:11:01.400Z,101344.00
2018-11-04T06:15:54.793Z,101351.00
2018-11-04T06:20:48.193Z,101347.00
2018-11-04T06:25:41.522Z,101353.00
2018-11-04T06:30:34.798Z,101347.00
2018-11-04T06:35:28.112Z,101351.00
2018-11-04T06:40:21.585Z,101349.00
2018-11-04T06:45:14.958Z,101348.00
2018-11-04T06:50:11.091Z,101347.00
2018-11-04T06:55:05.701Z,101347.00
2018-11-04T06:59:59.801Z,101344.00
2018-11-04T07:04:53.095Z,101341.00
2018-11-04T07:09:46.429Z,101345.00
2018-11-04T07:14:39.734Z,101351.00
2018-11-04T07:19:33.059Z,101345.00
2018-11-04T07:24:26.569Z,101343.00
2018-11-04T07:29:19.944Z,101337.00
2018-11-04T07:34:13.339Z,101335.00
2018-11-04T07:39:11.769Z,101330.00
2018-11-04T07:44:05.346Z,101320.00
2018-11-04T07:48:58.673Z,101318.00
2018-11-04T07:53:51.956Z,101312.00
2018-11-04T07:58:45.327Z,101312.00
2018-11-04T08:03:38.613Z,101310.00
2018-11-04T08:08:31.966Z,101308.00
2018-11-04T08:13:25.321Z,101308.00
2018-11-04T08:18:18.582Z,101302.00
2018-11-04T08:23:12.095Z,101295.00
2018-11-04T08:28:07.201Z,101292.00
2018-11-04T08:33:01.111Z,101292.00
2018-11-04T08:37:54.488Z,101282.00
2018-11-04T08:42:48.345Z,101284.00
2018-11-04T08:47:42.339Z,101281.00
2018-11-04T08:52:35.751Z,101270.00
2018-11-04T08:57:29.106Z,101269.00
2018-11-04T09:02:22.472Z,101261.00
2018-11-04T09:07:17.858Z,101261.00
2018-11-04T09:12:11.231Z,101253.00
2018-11-04T09:17:05.102Z,101252.00
2018-11-04T09:21:58.682Z,101241.00
2018-11-04T09:26:51.785Z,101244.00
2018-11-04T09:31:45.469Z,101252.00
2018-11-04T09:36:38.982Z,101243.00
2018-11-04T09:41:32.740Z,101248.00
2018-11-04T09:46:26.124Z,101255.00
2018-11-04T09:51:19.471Z,101254.00
2018-11-04T09:56:12.878Z,101254.00
2018-11-04T10:01:07.023Z,101247.00
2018-11-04T10:06:01.523Z,101245.00
2018-11-04T10:10:54.831Z,101250.00
2018-11-04T10:15:48.180Z,101252.00
2018-11-04T10:20:42.029Z,101247.00
2018-11-04T10:25:35.031Z,101235.00
2018-11-04T10:30:28.454Z,101233.00
2018-11-04T10:35:22.639Z,101223.00
2018-11-04T10:40:15.975Z,101220.00
2018-11-04T10:45:10.521Z,101208.00
2018-11-04T10:50:04.402Z,101200.00
2018-11-04T10:54:57.650Z,101200.00
2018-11-04T10:59:51.336Z,101196.00
2018-11-04T11:04:45.006Z,101176.00
2018-11-04T11:09:38.957Z,101166.00
2018-11-04T11:14:32.214Z,101154.00
2018-11-04T11:19:26.937Z,101143.00
2018-11-04T11:24:20.256Z,101131.00
2018-11-04T11:29:13.569Z,101129.00
2018-11-04T11:34:06.896Z,101119.00
2018-11-04T11:39:00.237Z,101113.00
2018-11-04T11:43:54.890Z,101098.00
2018-11-04T11:48:48.399Z,101094.00
2018-11-04T11:53:41.878Z,101088.00
2018-11-04T11:58:35.525Z,101076.00
2018-11-04T12:03:29.231Z,101075.00
2018-11-04T12:08:22.502Z,101066.00
2018-11-04T12:13:16.108Z,101056.00
2018-11-04T12:18:09.465Z,101050.00
2018-11-04T12:23:03.917Z,101038.00
2018-11-04T12:27:58.074Z,101027.00
2018-11-04T12:32:51.343Z,101019.00
2018-11-04T12:37:44.780Z,101010.00
2018-11-04T12:42:38.055Z,101015.00
2018-11-04T12:47:31.383Z,101015.00
2018-11-04T12:52:24.767Z,101011.00
2018-11-04T12:57:18.127Z,101007.00
2018-11-04T13:02:11.541Z,100999.00
2018-11-04T13:07:17.912Z,101003.00
2018-11-04T13:12:12.633Z,100992.00
2018-11-04T13:17:06.183Z,100983.00
2018-11-04T13:21:59.712Z,100976.00
2018-11-04T13:27:03.063Z,100965.00
2018-11-04T13:31:56.358Z,100950.00
2018-11-04T13:36:49.987Z,100938.00
2018-11-04T13:41:43.713Z,100933.00
2018-11-04T13:46:37.335Z,100918.00
2018-11-04T13:51:31.011Z,100908.00
2018-11-04T13:56:25.439Z,100893.00
2018-11-04T14:01:19.418Z,100885.00
2018-11-04T14:06:12.852Z,100888.00
2018-11-04T14:11:06.425Z,100887.00
2018-11-04T14:16:00.507Z,100881.00
2018-11-04T14:20:53.955Z,100889.00
2018-11-04T14:25:47.423Z,100884.00
2018-11-04T14:30:40.931Z,100895.00
2018-11-04T14:35:35.507Z,100884.00
2018-11-04T14:40:28.972Z,100885.00
2018-11-04T14:45:22.612Z,100899.00
2018-11-04T14:50:17.709Z,100896.00
2018-11-04T14:55:11.196Z,100897.00
2018-11-04T15:00:07.270Z,100906.00
2018-11-04T15:05:00.651Z,100905.00
2018-11-04T15:09:54.017Z,100895.00
2018-11-04T15:14:47.591Z,100887.00
2018-11-04T15:19:41.001Z,100873.00
2018-11-04T15:24:34.349Z,100864.00
2018-11-04T15:29:28.028Z,100861.00
2018-11-04T15:34:21.531Z,100859.00
2018-11-04T15:39:14.816Z,100856.00
2018-11-04T15:44:08.956Z,100856.00
2018-11-04T15:49:02.374Z,100862.00
2018-11-04T15:53:55.761Z,100865.00
2018-11-04T15:58:49.862Z,100870.00
2018-11-04T16:03:43.845Z,100862.00
2018-11-04T16:08:37.184Z,100862.00
2018-11-04T16:13:30.550Z,100863.00
2018-11-04T16:18:24.241Z,100864.00
2018-11-04T16:23:17.484Z,100868.00
2018-11-04T16:28:11.149Z,100868.00
2018-11-04T16:33:04.715Z,100866.00
2018-11-04T16:37:58.121Z,100867.00
2018-11-04T16:42:51.710Z,100867.00
2018-11-04T16:47:45.057Z,100863.00
2018-11-04T16:52:38.337Z,100864.00
2018-11-04T16:57:31.703Z,100855.00
2018-11-04T17:02:24.991Z,100849.00
2018-11-04T17:07:19.406Z,100865.00
2018-11-04T17:12:12.713Z,100854.00
2018-11-04T17:17:07.159Z,100850.00
2018-11-04T17:22:00.600Z,100851.00
2018-11-04T17:26:55.407Z,100847.00
2018-11-04T17:31:48.829Z,100846.00
2018-11-04T17:36:43.312Z,100832.00
2018-11-04T17:41:36.708Z,100840.00
2018-11-04T17:46:30.187Z,100837.00
2018-11-04T17:51:23.567Z,100833.00
2018-11-04T17:56:16.890Z,100831.00
2018-11-04T18:01:10.227Z,100829.00
2018-11-04T18:06:04.464Z,100826.00
2018-11-04T18:10:57.836Z,100819.00
2018-11-04T18:15:51.353Z,100818.00
2018-11-04T18:20:44.805Z,100812.00
2018-11-04T18:25:38.354Z,100816.00
2018-11-04T18:30:31.674Z,100819.00
2018-11-04T18:35:24.968Z,100815.00
2018-11-04T18:40:18.800Z,100807.00
2018-11-04T18:45:13.451Z,100797.00
2018-11-04T18:50:08.347Z,100807.00
2018-11-04T18:55:02.482Z,100807.00
2018-11-04T18:59:55.792Z,100812.00
2018-11-04T19:04:49.349Z,100799.00
2018-11-04T19:09:42.616Z,100794.00
2018-11-04T19:14:36.948Z,100790.00
2018-11-04T19:19:30.390Z,100781.00
2018-11-04T19:24:23.790Z,100783.00
2018-11-04T19:29:17.071Z,100798.00
2018-11-04T19:34:12.038Z,100789.00
2018-11-04T19:39:09.769Z,100786.00
2018-11-04T19:44:03.158Z,100785.00
2018-11-04T19:48:56.575Z,100782.00
2018-11-04T19:53:50.016Z,100779.00
2018-11-04T19:58:43.423Z,100776.00
2018-11-04T20:03:36.875Z,100775.00
2018-11-04T20:08:30.273Z,100767.00
2018-11-04T20:13:29.680Z,100763.00
2018-11-04T20:18:28.681Z,100773.00
2018-11-04T20:23:22.388Z,100766.00
2018-11-04T20:28:15.841Z,100764.00
2018-11-04T20:33:10.903Z,100758.00
2018-11-04T20:38:05.586Z,100760.00
2018-11-04T20:42:58.942Z,100753.00
2018-11-04T20:47:58.133Z,100764.00
2018-11-04T20:52:51.473Z,100769.00
2018-11-04T20:57:50.265Z,100757.00
2018-11-04T21:02:44.071Z,100748.00
2018-11-04T21:07:37.493Z,100746.00
2018-11-04T21:12:31.014Z,100749.00
2018-11-04T21:17:25.021Z,100743.00
2018-11-04T21:22:19.335Z,100741.00
2018-11-04T21:27:12.687Z,100739.00
2018-11-04T21:32:06.540Z,100731.00
2018-11-04T21:36:59.898Z,100721.00
2018-11-04T21:43:17.987Z,100719.00
2018-11-04T21:48:12.948Z,100712.00
2018-11-04T21:53:06.410Z,100710.00
2018-11-04T21:58:02.454Z,100699.00
2018-11-04T22:02:56.044Z,100682.00
2018-11-04T22:07:49.237Z,100673.00
2018-11-04T22:12:42.837Z,100671.00
2018-11-04T22:17:38.740Z,100674.00
2018-11-04T22:22:33.923Z,100672.00
2018-11-04T22:27:27.256Z,100671.00
2018-11-04T22:32:20.517Z,100671.00
2018-11-04T22:37:13.791Z,100664.00
2018-11-04T22:42:07.070Z,100651.00
2018-11-04T22:47:00.365Z,100657.00
2018-11-04T22:51:53.732Z,100660.00
2018-11-04T22:56:49.204Z,100663.00
2018-11-04T23:01:42.513Z,100663.00
2018-11-04T23:06:36.923Z,100651.00
2018-11-04T23:11:32.584Z,100646.00
2018-11-04T23:16:26.009Z,100653.00
2018-11-04T23:21:19.287Z,100648.00
2018-11-04T23:26:12.531Z,100642.00
2018-11-04T23:31:05.855Z,100637.00
2018-11-04T23:36:00.933Z,100638.00
2018-11-04T23:40:54.247Z,100632.00
2018-11-04T23:45:52.505Z,100624.00
2018-11-04T23:50:50.448Z,100622.00
2018-11-04T23:55:44.339Z,100619.00
